Dno, Russia
Current Conditions -  °F | °C
As of 12:50 AM on Monday 24 Nov 2014 (Local Time) from EETU Reporting Station
Haze Haze  
Wind Chill: 23°   Ceiling: 200
Heat Index: 30°   Visibility: 2.7mi
Dew Point: 28°   Wind: 7mph
Humidity: 93%   Direction: 150°SSE
Pressure: 30.59"   Gusts: NA
Location:  57.83°N, 29.98°E
Report Text: EETU 232150Z AUTO 15006KT 4400 BR OVC002/// M01/M02 Q1036
Loading
Personal Weather Stations






























Interactive Weather Map New forecast layout! Learn more

10-Day Weather Forecast

Advertisements
Track Severe Weather on mobile